createdAt,value
2022-12-19T00:01:26.794Z,45.79
2022-12-19T00:03:58.862Z,45.09
2022-12-19T00:06:26.973Z,45.64
2022-12-19T00:08:54.552Z,46.02
2022-12-19T00:11:23.235Z,45.92
2022-12-19T00:13:49.888Z,45.71
2022-12-19T00:16:19.880Z,45.93
2022-12-19T00:18:47.728Z,45.78
2022-12-19T00:21:17.828Z,46.25
2022-12-19T00:23:44.819Z,46.42
2022-12-19T00:26:17.282Z,46.45
2022-12-19T00:28:46.562Z,46.17
2022-12-19T00:31:14.155Z,46.22
2022-12-19T00:33:43.482Z,46.89
2022-12-19T00:36:12.891Z,46.46
2022-12-19T00:38:39.889Z,46.27
2022-12-19T00:41:09.002Z,46.71
2022-12-19T00:43:35.483Z,46.38
2022-12-19T00:46:09.298Z,47.26
2022-12-19T00:48:36.932Z,46.86
2022-12-19T00:51:10.536Z,47.21
2022-12-19T00:53:37.309Z,46.72
2022-12-19T00:56:11.671Z,47.29
2022-12-19T00:58:42.101Z,47.14
2022-12-19T01:01:17.868Z,46.80
2022-12-19T01:04:04.530Z,46.97
2022-12-19T01:06:31.195Z,47.11
2022-12-19T01:08:58.197Z,46.81
2022-12-19T01:11:43.730Z,46.89
2022-12-19T01:14:16.101Z,46.45
2022-12-19T01:16:45.622Z,47.32
2022-12-19T01:19:12.256Z,46.82
2022-12-19T01:21:38.819Z,47.49
2022-12-19T01:24:05.834Z,47.45
2022-12-19T01:26:32.368Z,47.22
2022-12-19T01:28:58.733Z,47.57
2022-12-19T01:31:25.338Z,47.10
2022-12-19T01:33:51.694Z,47.35
2022-12-19T01:36:18.141Z,46.73
2022-12-19T01:38:44.524Z,46.89
2022-12-19T01:41:11.261Z,46.94
2022-12-19T01:44:05.704Z,47.90
2022-12-19T01:46:42.966Z,47.64
2022-12-19T01:49:38.740Z,47.78
2022-12-19T01:52:08.221Z,47.01
2022-12-19T01:54:40.189Z,48.00
2022-12-19T01:57:10.743Z,47.85
2022-12-19T01:59:51.352Z,48.16
2022-12-19T02:02:28.631Z,48.18
2022-12-19T02:04:55.149Z,47.13
2022-12-19T02:07:23.341Z,47.11
2022-12-19T02:09:56.917Z,47.73
2022-12-19T02:12:26.779Z,47.59
2022-12-19T02:14:54.917Z,47.90
2022-12-19T02:17:39.611Z,47.59
2022-12-19T02:20:48.783Z,47.23
2022-12-19T02:24:04.018Z,47.63
2022-12-19T02:26:48.325Z,47.39
2022-12-19T02:29:45.649Z,47.28
2022-12-19T02:32:27.514Z,47.90
2022-12-19T02:35:02.903Z,48.03
2022-12-19T02:37:34.124Z,47.32
2022-12-19T02:40:16.693Z,47.13
2022-12-19T02:42:49.273Z,47.87
2022-12-19T02:45:28.590Z,47.67
2022-12-19T02:47:57.031Z,47.08
2022-12-19T02:50:23.495Z,47.18
2022-12-19T02:52:50.115Z,47.12
2022-12-19T02:55:23.699Z,47.64
2022-12-19T02:58:04.982Z,47.68
2022-12-19T03:00:37.015Z,47.31
2022-12-19T03:03:27.802Z,48.22
2022-12-19T03:06:23.707Z,47.96
2022-12-19T03:08:50.067Z,47.45
2022-12-19T03:11:16.908Z,47.41
2022-12-19T03:13:49.838Z,48.13
2022-12-19T03:16:16.361Z,47.90
2022-12-19T03:18:43.072Z,48.34
2022-12-19T03:21:19.431Z,47.91
2022-12-19T03:23:46.662Z,48.22
2022-12-19T03:26:18.389Z,48.43
2022-12-19T03:28:59.338Z,48.48
2022-12-19T03:31:29.318Z,48.02
2022-12-19T03:34:03.015Z,48.26
2022-12-19T03:36:36.503Z,48.26
2022-12-19T03:39:06.152Z,48.06
2022-12-19T03:42:02.729Z,47.87
2022-12-19T03:44:33.531Z,48.26
2022-12-19T03:47:21.510Z,48.97
2022-12-19T03:49:48.573Z,48.03
2022-12-19T03:52:28.417Z,48.62
2022-12-19T03:55:18.374Z,48.72
2022-12-19T03:57:55.993Z,48.93
2022-12-19T04:00:25.072Z,48.68
2022-12-19T04:02:54.033Z,48.26
2022-12-19T04:05:26.253Z,48.56
2022-12-19T04:07:56.435Z,48.09
2022-12-19T04:10:25.805Z,48.62
2022-12-19T04:13:03.027Z,48.73
2022-12-19T04:15:55.733Z,48.45
2022-12-19T04:18:23.379Z,48.20
2022-12-19T04:21:01.498Z,48.82
2022-12-19T04:23:35.165Z,48.75
2022-12-19T04:26:04.265Z,48.09
2022-12-19T04:28:38.269Z,48.47
2022-12-19T04:31:06.685Z,48.58
2022-12-19T04:33:33.086Z,48.34
2022-12-19T04:36:00.187Z,48.47
2022-12-19T04:38:26.985Z,48.83
2022-12-19T04:40:53.330Z,48.85
2022-12-19T04:43:19.643Z,48.54
2022-12-19T04:45:46.220Z,48.59
2022-12-19T04:48:13.055Z,48.94
2022-12-19T04:50:39.421Z,48.98
2022-12-19T04:53:06.342Z,49.01
2022-12-19T04:55:32.841Z,48.75
2022-12-19T04:57:59.180Z,49.08
2022-12-19T05:00:25.518Z,49.22
2022-12-19T05:02:52.133Z,49.31
2022-12-19T05:05:18.960Z,49.02
2022-12-19T05:07:46.957Z,49.05
2022-12-19T05:10:13.682Z,48.81
2022-12-19T05:12:40.109Z,48.90
2022-12-19T05:15:07.099Z,49.16
2022-12-19T05:17:33.686Z,49.16
2022-12-19T05:20:00.002Z,49.66
2022-12-19T05:22:26.348Z,49.34
2022-12-19T05:24:52.736Z,49.35
2022-12-19T05:27:19.399Z,49.35
2022-12-19T05:29:45.805Z,49.42
2022-12-19T05:32:12.182Z,49.66
2022-12-19T05:34:38.574Z,49.76
2022-12-19T05:37:05.649Z,49.82
2022-12-19T05:39:32.035Z,49.55
2022-12-19T05:41:58.561Z,49.58
2022-12-19T05:44:26.270Z,49.61
2022-12-19T05:46:54.897Z,50.15
2022-12-19T05:49:21.302Z,49.87
2022-12-19T05:51:48.338Z,49.50
2022-12-19T05:54:14.973Z,49.90
2022-12-19T05:56:41.479Z,49.85
2022-12-19T05:59:07.887Z,49.82
2022-12-19T06:01:34.808Z,49.67
2022-12-19T06:04:01.345Z,49.40
2022-12-19T06:06:27.953Z,49.55
2022-12-19T06:08:56.375Z,49.77
2022-12-19T06:11:23.649Z,49.80
2022-12-19T06:13:50.687Z,49.81
2022-12-19T06:16:19.803Z,49.64
2022-12-19T06:18:48.350Z,49.72
2022-12-19T06:21:16.195Z,49.78
2022-12-19T06:23:43.843Z,49.67
2022-12-19T06:26:17.142Z,50.02
2022-12-19T06:28:46.184Z,49.59
2022-12-19T06:31:13.619Z,49.43
2022-12-19T06:33:40.411Z,49.71
2022-12-19T06:36:14.606Z,50.12
2022-12-19T06:38:40.987Z,49.62
2022-12-19T06:41:27.492Z,50.32
2022-12-19T06:43:54.203Z,50.03
2022-12-19T06:46:21.123Z,50.12
2022-12-19T06:48:47.759Z,50.35
2022-12-19T06:51:14.173Z,50.36
2022-12-19T06:53:40.657Z,50.39
2022-12-19T06:56:08.278Z,50.03
2022-12-19T06:58:35.299Z,50.57
2022-12-19T07:01:01.812Z,50.45
2022-12-19T07:03:39.559Z,51.09
2022-12-19T07:06:06.725Z,50.54
2022-12-19T07:08:33.359Z,50.25
2022-12-19T07:10:59.861Z,50.82
2022-12-19T07:13:27.577Z,50.37
2022-12-19T07:15:59.051Z,50.94
2022-12-19T07:18:25.768Z,50.67
2022-12-19T07:20:52.271Z,51.05
2022-12-19T07:23:21.064Z,50.60
2022-12-19T07:25:47.580Z,51.18
2022-12-19T07:28:15.197Z,51.21
2022-12-19T07:30:41.959Z,51.02
2022-12-19T07:33:11.070Z,50.92
2022-12-19T07:35:38.285Z,51.39
2022-12-19T07:38:06.180Z,51.23
2022-12-19T07:40:34.796Z,51.61
2022-12-19T07:43:01.935Z,51.25
2022-12-19T07:45:29.644Z,50.98
2022-12-19T07:47:56.405Z,51.25
2022-12-19T07:50:22.818Z,50.84
2022-12-19T07:52:49.278Z,51.58
2022-12-19T07:55:15.682Z,51.30
2022-12-19T07:57:42.559Z,51.62
2022-12-19T08:00:09.549Z,51.45
2022-12-19T08:02:36.336Z,51.66
2022-12-19T08:05:03.769Z,51.20
2022-12-19T08:07:30.290Z,51.40
2022-12-19T08:09:56.682Z,51.59
2022-12-19T08:12:23.765Z,51.24
2022-12-19T08:14:55.524Z,51.32
2022-12-19T08:17:23.920Z,51.44
2022-12-19T08:19:50.343Z,51.76
2022-12-19T08:22:17.055Z,51.29
2022-12-19T08:24:43.604Z,51.53
2022-12-19T08:27:09.975Z,51.94
2022-12-19T08:29:36.293Z,51.49
2022-12-19T08:32:02.695Z,51.59
2022-12-19T08:34:29.313Z,51.07
2022-12-19T08:36:55.671Z,51.17
2022-12-19T08:39:22.130Z,51.05
2022-12-19T08:41:48.513Z,51.45
2022-12-19T08:44:15.365Z,51.28
2022-12-19T08:46:48.071Z,51.73
2022-12-19T08:49:16.581Z,51.69
2022-12-19T08:51:42.959Z,51.09
2022-12-19T08:54:11.753Z,51.31
2022-12-19T08:56:45.997Z,51.05
2022-12-19T08:59:18.489Z,51.63
2022-12-19T09:01:52.493Z,51.35
2022-12-19T09:04:52.525Z,50.92
2022-12-19T09:07:06.291Z,51.08
2022-12-19T09:09:33.898Z,50.84
2022-12-19T09:12:00.305Z,50.68
2022-12-19T09:14:26.823Z,51.26
2022-12-19T09:16:53.405Z,50.70
2022-12-19T09:19:19.802Z,50.85
2022-12-19T09:21:46.563Z,51.31
2022-12-19T09:24:12.963Z,50.91
2022-12-19T09:26:40.173Z,51.04
2022-12-19T09:29:20.620Z,50.78
2022-12-19T09:31:51.465Z,50.84
2022-12-19T09:34:33.013Z,50.78
2022-12-19T09:37:06.409Z,50.00
2022-12-19T09:39:34.014Z,50.20
2022-12-19T09:42:17.625Z,50.67
2022-12-19T09:44:56.471Z,50.92
2022-12-19T09:47:26.483Z,50.83
2022-12-19T09:49:54.528Z,50.83
2022-12-19T09:52:35.845Z,51.28
2022-12-19T09:55:11.357Z,50.46
2022-12-19T09:57:49.489Z,50.73
2022-12-19T10:00:19.493Z,50.84
2022-12-19T10:03:14.142Z,51.10
2022-12-19T10:07:09.300Z,51.12
2022-12-19T10:09:06.598Z,50.72
2022-12-19T10:12:38.109Z,50.80
2022-12-19T10:15:09.463Z,50.95
2022-12-19T10:17:47.600Z,50.11
2022-12-19T10:20:23.099Z,50.74
2022-12-19T10:23:26.053Z,50.87
2022-12-19T10:26:14.439Z,50.39
2022-12-19T10:28:54.608Z,50.33
2022-12-19T10:31:48.136Z,50.05
2022-12-19T10:34:30.401Z,49.83
2022-12-19T10:37:27.322Z,50.55
2022-12-19T10:39:58.935Z,50.43
2022-12-19T10:42:33.861Z,50.32
2022-12-19T10:45:04.815Z,50.28
2022-12-19T10:47:31.333Z,50.32
2022-12-19T10:49:59.538Z,49.91
2022-12-19T10:52:55.221Z,50.32
2022-12-19T10:55:38.824Z,49.83
2022-12-19T10:58:24.128Z,49.57
2022-12-19T11:00:59.695Z,49.45
2022-12-19T11:03:26.424Z,50.24
2022-12-19T11:05:57.673Z,49.61
2022-12-19T11:08:36.529Z,49.63
2022-12-19T11:12:35.580Z,49.75
2022-12-19T11:19:00.324Z,49.68
2022-12-19T11:23:51.313Z,49.59
2022-12-19T11:29:17.027Z,49.47
2022-12-19T11:30:05.572Z,49.13
2022-12-19T11:30:34.379Z,49.77
2022-12-19T11:30:36.674Z,49.83
2022-12-19T11:32:32.253Z,49.41
2022-12-19T11:34:18.320Z,49.30
2022-12-19T11:36:50.496Z,49.23
2022-12-19T11:39:32.455Z,48.81
2022-12-19T11:42:46.669Z,48.76
2022-12-19T11:45:21.124Z,49.10
2022-12-19T11:48:13.021Z,48.96
2022-12-19T11:50:56.608Z,49.06
2022-12-19T11:53:30.414Z,48.91
2022-12-19T11:56:15.885Z,48.72
2022-12-19T11:58:49.409Z,49.11
2022-12-19T12:01:47.302Z,48.90
2022-12-19T12:04:54.897Z,48.36
2022-12-19T12:07:56.642Z,48.79
2022-12-19T12:17:30.652Z,48.80
2022-12-19T12:21:57.673Z,48.39
2022-12-19T12:30:26.126Z,48.36
2022-12-19T12:31:10.130Z,48.46
2022-12-19T12:31:15.837Z,48.34
2022-12-19T12:31:38.596Z,48.13
2022-12-19T12:31:57.248Z,48.55
2022-12-19T12:35:31.525Z,48.48
2022-12-19T12:38:35.125Z,48.23
2022-12-19T12:41:10.124Z,48.18
2022-12-19T12:44:00.676Z,47.94
2022-12-19T12:46:34.259Z,48.15
2022-12-19T12:49:23.337Z,47.98
2022-12-19T12:51:50.225Z,47.91
2022-12-19T12:54:17.623Z,48.50
2022-12-19T12:56:46.589Z,47.46
2022-12-19T12:59:26.770Z,47.33
2022-12-19T13:02:07.219Z,47.31
2022-12-19T13:04:42.027Z,47.65
2022-12-19T13:07:24.449Z,47.69
2022-12-19T13:10:06.547Z,47.31
2022-12-19T13:12:51.496Z,47.76
2022-12-19T13:15:29.728Z,47.05
2022-12-19T13:17:56.205Z,47.59
2022-12-19T13:20:27.112Z,47.24
2022-12-19T13:22:58.211Z,47.34
2022-12-19T13:25:27.445Z,47.04
2022-12-19T13:28:00.893Z,47.30
2022-12-19T13:30:52.243Z,47.62
2022-12-19T13:33:21.417Z,47.01
2022-12-19T13:39:42.374Z,47.45
2022-12-19T13:39:58.317Z,46.99
2022-12-19T13:42:05.044Z,46.84
2022-12-19T13:44:35.886Z,47.10
2022-12-19T13:47:02.521Z,46.82
2022-12-19T13:49:34.619Z,46.99
2022-12-19T13:52:03.098Z,46.83
2022-12-19T13:54:34.553Z,46.50
2022-12-19T13:57:08.151Z,46.60
2022-12-19T13:59:38.502Z,46.67
2022-12-19T14:02:18.163Z,46.35
2022-12-19T14:04:45.553Z,46.59
2022-12-19T14:07:40.889Z,45.94
2022-12-19T14:11:31.973Z,46.02
2022-12-19T14:13:56.536Z,46.24
2022-12-19T14:16:18.359Z,46.25
2022-12-19T14:18:49.650Z,46.19
2022-12-19T14:22:05.277Z,45.84
2022-12-19T14:24:10.451Z,45.95
2022-12-19T14:28:23.522Z,46.07
2022-12-19T14:30:26.806Z,45.74
2022-12-19T14:33:39.530Z,45.89
2022-12-19T14:36:06.294Z,45.96
2022-12-19T14:39:27.666Z,45.85
2022-12-19T14:41:08.000Z,45.85
2022-12-19T14:43:59.367Z,45.74
2022-12-19T14:53:34.399Z,45.58
2022-12-19T14:54:01.595Z,45.65
2022-12-19T14:54:48.353Z,45.28
2022-12-19T14:56:08.550Z,45.27
2022-12-19T14:58:55.463Z,45.84
2022-12-19T15:01:31.113Z,45.39
2022-12-19T15:04:51.683Z,45.71
2022-12-19T15:07:07.280Z,45.40
2022-12-19T15:11:04.818Z,45.80
2022-12-19T15:14:46.491Z,45.83
2022-12-19T15:16:03.264Z,45.69
2022-12-19T15:18:32.865Z,45.46
2022-12-19T15:21:05.685Z,45.35
2022-12-19T15:23:32.359Z,45.82
2022-12-19T15:26:06.134Z,45.59
2022-12-19T15:28:43.272Z,45.19
2022-12-19T15:31:25.133Z,45.73
2022-12-19T15:34:33.819Z,45.54
2022-12-19T15:36:38.912Z,45.38
2022-12-19T15:39:05.384Z,45.76
2022-12-19T15:41:32.036Z,45.36
2022-12-19T15:44:04.112Z,45.83
2022-12-19T15:46:32.243Z,45.77
2022-12-19T15:48:58.706Z,45.58
2022-12-19T15:51:25.096Z,45.75
2022-12-19T15:53:51.492Z,45.61
2022-12-19T15:56:29.923Z,45.06
2022-12-19T15:58:57.165Z,45.46
2022-12-19T16:01:23.953Z,45.77
2022-12-19T16:03:51.290Z,45.87
2022-12-19T16:06:19.318Z,45.63
2022-12-19T16:08:45.715Z,45.98
2022-12-19T16:11:23.378Z,45.27
2022-12-19T16:13:56.756Z,45.45
2022-12-19T16:16:23.779Z,45.42
2022-12-19T16:18:50.345Z,45.57
2022-12-19T16:21:31.644Z,45.13
2022-12-19T16:24:00.905Z,45.31
2022-12-19T16:26:33.416Z,45.08
2022-12-19T16:29:00.605Z,45.07
2022-12-19T16:31:28.010Z,44.96
2022-12-19T16:33:55.139Z,45.10
2022-12-19T16:36:21.773Z,45.03
2022-12-19T16:38:48.346Z,45.31
2022-12-19T16:41:19.246Z,45.13
2022-12-19T16:43:46.532Z,45.25
2022-12-19T16:46:34.003Z,45.07
2022-12-19T16:49:03.120Z,45.41
2022-12-19T16:51:29.798Z,45.29
2022-12-19T16:53:58.829Z,45.26
2022-12-19T16:56:35.747Z,44.79
2022-12-19T16:59:05.507Z,45.08
2022-12-19T17:01:32.240Z,44.92
2022-12-19T17:03:58.961Z,45.32
2022-12-19T17:06:26.518Z,44.80
2022-12-19T17:08:52.825Z,44.96
2022-12-19T17:11:23.349Z,44.92
2022-12-19T17:13:55.075Z,45.21
2022-12-19T17:16:21.762Z,45.14
2022-12-19T17:18:48.675Z,45.15
2022-12-19T17:21:21.539Z,45.06
2022-12-19T17:23:49.630Z,45.20
2022-12-19T17:26:18.119Z,45.01
2022-12-19T17:28:48.220Z,45.17
2022-12-19T17:31:25.623Z,45.05
2022-12-19T17:33:54.833Z,45.07
2022-12-19T17:36:25.566Z,45.12
2022-12-19T17:38:54.224Z,45.37
2022-12-19T17:41:20.837Z,45.29
2022-12-19T17:43:47.220Z,45.17
2022-12-19T17:46:21.745Z,45.21
2022-12-19T17:48:51.097Z,45.28
2022-12-19T17:51:20.050Z,45.06
2022-12-19T17:53:47.889Z,45.48
2022-12-19T17:56:15.992Z,45.61
2022-12-19T17:58:42.861Z,45.36
2022-12-19T18:01:27.627Z,45.27
2022-12-19T18:03:56.000Z,45.33
2022-12-19T18:06:22.327Z,45.37
2022-12-19T18:08:48.687Z,44.99
2022-12-19T18:11:24.493Z,45.19
2022-12-19T18:13:52.948Z,45.51
2022-12-19T18:16:28.093Z,45.17
2022-12-19T18:18:54.648Z,45.49
2022-12-19T18:21:24.582Z,45.26
2022-12-19T18:23:55.147Z,45.40
2022-12-19T18:26:21.856Z,45.37
2022-12-19T18:28:48.787Z,45.10
2022-12-19T18:31:22.329Z,45.26
2022-12-19T18:33:50.126Z,45.38
2022-12-19T18:36:25.726Z,45.53
2022-12-19T18:38:52.973Z,45.50
2022-12-19T18:41:20.659Z,45.26
2022-12-19T18:43:48.770Z,45.32
2022-12-19T18:46:19.152Z,45.44
2022-12-19T18:48:46.099Z,45.60
2022-12-19T18:51:21.303Z,45.38
2022-12-19T18:53:50.324Z,45.44
2022-12-19T18:56:17.254Z,45.42
2022-12-19T18:58:49.583Z,45.46
2022-12-19T19:01:24.130Z,45.27
2022-12-19T19:03:55.583Z,45.30
2022-12-19T19:06:25.656Z,45.13
2022-12-19T19:08:52.481Z,44.93
2022-12-19T19:11:20.738Z,45.13
2022-12-19T19:13:47.225Z,44.98
2022-12-19T19:16:18.115Z,45.52
2022-12-19T19:18:48.732Z,45.59
2022-12-19T19:21:16.212Z,45.41
2022-12-19T19:23:47.518Z,45.64
2022-12-19T19:26:14.354Z,45.74
2022-12-19T19:28:43.081Z,45.28
2022-12-19T19:31:16.201Z,45.96
2022-12-19T19:33:48.954Z,45.71
2022-12-19T19:36:20.303Z,45.89
2022-12-19T19:38:51.782Z,45.83
2022-12-19T19:41:18.423Z,45.80
2022-12-19T19:43:45.977Z,46.06
2022-12-19T19:46:12.968Z,45.83
2022-12-19T19:48:42.532Z,46.10
2022-12-19T19:51:09.512Z,45.85
2022-12-19T19:53:37.869Z,45.70
2022-12-19T19:56:04.985Z,45.71
2022-12-19T19:58:32.108Z,45.75
2022-12-19T20:00:58.746Z,45.90
2022-12-19T20:03:25.407Z,45.83
2022-12-19T20:05:59.822Z,45.93
2022-12-19T20:08:26.343Z,45.95
2022-12-19T20:10:57.913Z,45.80
2022-12-19T20:13:24.836Z,46.11
2022-12-19T20:15:52.080Z,45.85
2022-12-19T20:18:18.632Z,46.00
2022-12-19T20:20:49.825Z,45.98
2022-12-19T20:23:16.759Z,46.09
2022-12-19T20:25:45.518Z,46.04
2022-12-19T20:28:11.840Z,46.20
2022-12-19T20:30:38.228Z,46.10
2022-12-19T20:33:04.553Z,46.21
2022-12-19T20:35:31.373Z,46.42
2022-12-19T20:37:57.883Z,46.52
2022-12-19T20:40:24.233Z,46.32
2022-12-19T20:42:50.608Z,46.43
2022-12-19T20:45:17.200Z,46.48
2022-12-19T20:47:43.664Z,46.65
2022-12-19T20:50:12.686Z,46.45
2022-12-19T20:52:39.228Z,46.42
2022-12-19T20:55:06.214Z,46.29
2022-12-19T20:57:32.588Z,46.08
2022-12-19T20:59:59.091Z,46.17
2022-12-19T21:02:25.756Z,46.38
2022-12-19T21:04:52.543Z,46.17
2022-12-19T21:07:19.033Z,46.29
2022-12-19T21:09:45.677Z,46.17
2022-12-19T21:12:12.676Z,46.55
2022-12-19T21:14:39.323Z,46.27
2022-12-19T21:17:05.721Z,46.57
2022-12-19T21:19:32.280Z,46.71
2022-12-19T21:21:58.712Z,46.63
2022-12-19T21:24:25.131Z,46.77
2022-12-19T21:26:56.112Z,47.10
2022-12-19T21:29:24.545Z,47.31
2022-12-19T21:31:51.436Z,47.33
2022-12-19T21:34:17.797Z,47.21
2022-12-19T21:36:44.477Z,47.05
2022-12-19T21:39:11.129Z,47.19
2022-12-19T21:41:37.639Z,47.40
2022-12-19T21:44:04.173Z,47.45
2022-12-19T21:46:35.625Z,47.29
2022-12-19T21:49:05.391Z,47.35
2022-12-19T21:51:32.311Z,47.30
2022-12-19T21:54:01.127Z,47.76
2022-12-19T21:56:41.351Z,47.48
2022-12-19T21:59:12.709Z,47.26
2022-12-19T22:01:41.278Z,47.23
2022-12-19T22:04:12.417Z,47.40
2022-12-19T22:06:39.423Z,47.29
2022-12-19T22:09:08.694Z,47.25
2022-12-19T22:11:36.476Z,47.32
2022-12-19T22:14:07.504Z,47.27
2022-12-19T22:16:34.862Z,47.34
2022-12-19T22:19:02.025Z,47.13
2022-12-19T22:21:29.982Z,47.27
2022-12-19T22:24:00.600Z,47.22
2022-12-19T22:26:29.219Z,47.11
2022-12-19T22:28:56.586Z,47.17
2022-12-19T22:31:31.303Z,46.95
2022-12-19T22:34:01.246Z,46.78
2022-12-19T22:36:30.258Z,46.72
2022-12-19T22:38:58.360Z,46.87
2022-12-19T22:41:25.328Z,46.82
2022-12-19T22:43:52.155Z,46.86
2022-12-19T22:46:26.313Z,47.09
2022-12-19T22:48:56.902Z,46.78
2022-12-19T22:51:24.058Z,46.74
2022-12-19T22:53:53.641Z,46.75
2022-12-19T22:56:22.926Z,46.95
2022-12-19T22:58:52.901Z,46.96
2022-12-19T23:01:26.833Z,46.78
2022-12-19T23:03:55.764Z,46.74
2022-12-19T23:06:24.195Z,47.04
2022-12-19T23:08:51.193Z,46.66
2022-12-19T23:11:21.638Z,47.04
2022-12-19T23:13:49.383Z,47.04
2022-12-19T23:16:16.859Z,47.28
2022-12-19T23:18:43.443Z,47.56
2022-12-19T23:21:21.315Z,47.73
2022-12-19T23:23:49.646Z,47.31
2022-12-19T23:26:21.933Z,47.71
2022-12-19T23:29:02.875Z,47.78
2022-12-19T23:31:31.108Z,47.53
2022-12-19T23:33:58.369Z,47.52
2022-12-19T23:37:00.549Z,47.46
2022-12-19T23:39:12.579Z,47.55
2022-12-19T23:41:39.083Z,47.41
2022-12-19T23:44:05.821Z,47.72
2022-12-19T23:46:32.283Z,47.54
2022-12-19T23:48:58.848Z,47.74
2022-12-19T23:51:28.163Z,47.88
2022-12-19T23:53:55.779Z,47.64
2022-12-19T23:56:25.667Z,47.53
2022-12-19T23:58:52.674Z,47.45
